createdAt,value
2019-05-14T00:00:00.011Z,8.3
2019-05-14T00:05:03.253Z,8.3
2019-05-14T00:10:01.191Z,8.2
2019-05-14T00:15:02.018Z,8.1
2019-05-14T00:20:07.234Z,8.2
2019-05-14T00:25:01.120Z,8.1
2019-05-14T00:30:02.468Z,7.9
2019-05-14T00:35:02.071Z,7.9
2019-05-14T00:40:01.293Z,7.7
2019-05-14T00:45:01.240Z,7.8
2019-05-14T00:50:02.226Z,7.9
2019-05-14T00:55:01.157Z,7.8
2019-05-14T01:00:01.078Z,7.5
2019-05-14T01:05:01.871Z,7.5
2019-05-14T01:10:01.331Z,7.6
2019-05-14T01:15:07.812Z,7.7
2019-05-14T01:20:02.858Z,7.6
2019-05-14T01:25:01.618Z,7.4
2019-05-14T01:30:02.058Z,7.6
2019-05-14T01:35:01.347Z,7.5
2019-05-14T01:40:01.193Z,7.4
2019-05-14T01:45:02.398Z,7.4
2019-05-14T01:50:02.098Z,7.4
2019-05-14T01:55:02.139Z,7.5
2019-05-14T02:00:02.275Z,7.4
2019-05-14T02:05:02.053Z,7.5
2019-05-14T02:10:01.177Z,7.4
2019-05-14T02:15:01.873Z,7.4
2019-05-14T02:20:01.985Z,7.3
2019-05-14T02:25:02.357Z,7.2
2019-05-14T02:30:01.834Z,7.3
2019-05-14T02:34:59.876Z,7
2019-05-14T02:40:00.597Z,7
2019-05-14T02:45:00.119Z,7
2019-05-14T02:50:00.273Z,7
2019-05-14T02:54:59.968Z,7.1
2019-05-14T03:00:00.258Z,7.1
2019-05-14T03:04:59.729Z,7.1
2019-05-14T03:09:59.947Z,7.2
2019-05-14T03:14:59.684Z,7.1
2019-05-14T03:20:00.151Z,7.1
2019-05-14T03:24:59.952Z,7
2019-05-14T03:29:59.949Z,7
2019-05-14T03:35:04.050Z,7.1
2019-05-14T03:39:59.752Z,7.1
2019-05-14T03:44:59.981Z,6.8
2019-05-14T03:49:59.827Z,6.8
2019-05-14T03:55:03.948Z,6.9
2019-05-14T04:00:00.116Z,6.9
2019-05-14T04:05:00.161Z,6.9
2019-05-14T04:09:59.962Z,6.9
2019-05-14T04:14:59.911Z,7.1
2019-05-14T04:20:00.097Z,7.2
2019-05-14T04:24:59.910Z,7
2019-05-14T04:29:59.650Z,6.9
2019-05-14T04:34:59.828Z,7.1
2019-05-14T04:39:59.766Z,7.1
2019-05-14T04:45:05.256Z,7.3
2019-05-14T04:49:59.593Z,7.3
2019-05-14T04:54:59.760Z,7.5
2019-05-14T04:59:59.948Z,7.4
2019-05-14T05:04:59.832Z,7.5
2019-05-14T05:09:59.745Z,7.5
2019-05-14T05:14:59.575Z,7.5
2019-05-14T05:19:59.630Z,7.7
2019-05-14T05:24:59.408Z,7.8
2019-05-14T05:29:59.777Z,7.7
2019-05-14T05:34:59.847Z,7.8
2019-05-14T05:39:59.729Z,8
2019-05-14T05:44:59.632Z,8.2
2019-05-14T05:49:59.477Z,8.1
2019-05-14T05:54:59.695Z,8.2
2019-05-14T05:59:59.719Z,8.3
2019-05-14T06:04:59.461Z,8.7
2019-05-14T06:09:59.537Z,8.7
2019-05-14T06:14:59.456Z,8.7
2019-05-14T06:19:59.565Z,8.8
2019-05-14T06:24:59.695Z,8.9
2019-05-14T06:29:59.425Z,9
2019-05-14T06:34:59.652Z,9.1
2019-05-14T06:40:01.617Z,9.4
2019-05-14T06:44:59.394Z,9.9
2019-05-14T06:49:59.641Z,10.4
2019-05-14T06:54:59.422Z,10.2
2019-05-14T06:59:59.520Z,10.3
2019-05-14T07:04:59.612Z,10.6
2019-05-14T07:09:59.651Z,10.3
2019-05-14T07:14:59.535Z,10.4
2019-05-14T07:19:59.215Z,10.6
2019-05-14T07:24:59.346Z,10.8
2019-05-14T07:29:59.388Z,10.9
2019-05-14T07:34:59.722Z,11.2
2019-05-14T07:39:59.378Z,11.3
2019-05-14T07:44:59.567Z,11.2
2019-05-14T07:49:59.555Z,11.2
2019-05-14T07:54:59.408Z,11.7
2019-05-14T07:59:59.469Z,11.8
2019-05-14T08:04:59.543Z,11.5
2019-05-14T08:09:59.585Z,11.5
2019-05-14T08:15:14.115Z,11.8
2019-05-14T08:19:59.432Z,11.6
2019-05-14T08:24:59.252Z,12.1
2019-05-14T08:29:59.193Z,12.1
2019-05-14T08:34:59.286Z,12.2
2019-05-14T08:39:59.403Z,12.1
2019-05-14T08:44:59.529Z,12.4
2019-05-14T08:50:00.081Z,12.4
2019-05-14T08:55:07.275Z,12.6
2019-05-14T08:59:59.479Z,12.6
2019-05-14T09:05:03.989Z,12.5
2019-05-14T09:10:00.081Z,12.5
2019-05-14T09:14:59.317Z,12.6
2019-05-14T09:20:06.596Z,13
2019-05-14T09:25:00.131Z,12.9
2019-05-14T09:29:59.157Z,13
2019-05-14T09:34:59.175Z,13
2019-05-14T09:39:59.364Z,13.1
2019-05-14T09:44:59.704Z,13.2
2019-05-14T09:50:15.093Z,13.2
2019-05-14T09:54:59.090Z,13.4
2019-05-14T09:59:59.177Z,13.5
2019-05-14T10:04:59.885Z,13.5
2019-05-14T10:09:59.264Z,13.7
2019-05-14T10:14:59.324Z,13.9
2019-05-14T10:19:59.721Z,13.8
2019-05-14T10:24:58.939Z,13.9
2019-05-14T10:29:59.262Z,13.9
2019-05-14T10:34:59.069Z,14.2
2019-05-14T10:39:59.030Z,14.3
2019-05-14T10:44:59.267Z,14.5
2019-05-14T10:49:59.031Z,14.8
2019-05-14T10:54:59.266Z,14.8
2019-05-14T10:59:59.262Z,14.9
2019-05-14T11:04:59.181Z,14.4
2019-05-14T11:09:59.117Z,14.8
2019-05-14T11:14:59.402Z,15.1
2019-05-14T11:19:59.020Z,15
2019-05-14T11:24:59.231Z,15.4
2019-05-14T11:29:59.252Z,14.9
2019-05-14T11:34:59.283Z,15.6
2019-05-14T11:39:59.157Z,15.7
2019-05-14T11:44:59.170Z,16.2
2019-05-14T11:49:59.251Z,16.4
2019-05-14T11:54:58.876Z,16.2
2019-05-14T11:59:59.170Z,16.7
2019-05-14T12:04:58.934Z,16.2
2019-05-14T12:09:58.893Z,16.5
2019-05-14T12:14:59.130Z,16.5
2019-05-14T12:19:59.478Z,16.4
2019-05-14T12:24:58.984Z,16.7
2019-05-14T12:29:59.874Z,16.4
2019-05-14T12:34:59.436Z,16.5
2019-05-14T12:39:59.217Z,16.6
2019-05-14T12:44:58.886Z,16.6
2019-05-14T12:49:58.848Z,16.5
2019-05-14T12:54:59.835Z,16.8
2019-05-14T12:59:59.015Z,17.1
2019-05-14T13:05:00.133Z,17.2
2019-05-14T13:09:59.071Z,16.9
2019-05-14T13:14:59.201Z,17.2
2019-05-14T13:19:59.052Z,17
2019-05-14T13:24:58.926Z,17.2
2019-05-14T13:29:59.266Z,17.8
2019-05-14T13:34:59.243Z,18
2019-05-14T13:39:59.280Z,17.7
2019-05-14T13:44:59.079Z,17.8
2019-05-14T13:49:59.326Z,17.9
2019-05-14T13:54:58.732Z,18.3
2019-05-14T13:59:59.034Z,19.3
2019-05-14T14:04:59.022Z,18.5
2019-05-14T14:09:59.215Z,18.4
2019-05-14T14:14:58.753Z,18.9
2019-05-14T14:19:59.009Z,18.6
2019-05-14T14:24:59.201Z,18.5
2019-05-14T14:29:58.811Z,18.4
2019-05-14T14:34:59.143Z,18
2019-05-14T14:39:59.334Z,18.8
2019-05-14T14:44:58.999Z,19.1
2019-05-14T14:50:00.396Z,18.8
2019-05-14T14:54:59.036Z,18.2
2019-05-14T14:59:58.612Z,17.6
2019-05-14T15:04:59.576Z,17.7
2019-05-14T15:09:59.621Z,18
2019-05-14T15:14:59.402Z,18
2019-05-14T15:19:59.454Z,18.4
2019-05-14T15:24:58.751Z,18.3
2019-05-14T15:29:59.372Z,18.5
2019-05-14T15:34:59.606Z,18.1
2019-05-14T15:39:58.823Z,17.9
2019-05-14T15:44:59.790Z,17.7
2019-05-14T15:49:59.481Z,17.5
2019-05-14T15:54:58.718Z,17.2
2019-05-14T16:00:00.812Z,16.8
2019-05-14T16:04:59.239Z,16.9
2019-05-14T16:10:00.946Z,16.8
2019-05-14T16:14:58.543Z,16.7
2019-05-14T16:19:58.766Z,16.6
2019-05-14T16:25:01.022Z,16.5
2019-05-14T16:29:58.821Z,16.5
2019-05-14T16:34:58.390Z,16.6
2019-05-14T16:39:58.802Z,16.5
2019-05-14T16:44:58.582Z,16.4
2019-05-14T16:49:59.183Z,16.3
2019-05-14T16:55:17.305Z,16.3
2019-05-14T16:59:58.659Z,16.1
2019-05-14T17:04:59.083Z,16.2
2019-05-14T17:09:58.669Z,16.2
2019-05-14T17:14:58.754Z,16.1
2019-05-14T17:19:58.835Z,16.1
2019-05-14T17:24:58.727Z,15.9
2019-05-14T17:29:58.938Z,15.8
2019-05-14T17:34:58.743Z,15.9
2019-05-14T17:39:58.378Z,15.9
2019-05-14T17:44:58.994Z,16.1
2019-05-14T17:49:59.060Z,15.9
2019-05-14T17:54:58.643Z,16
2019-05-14T17:59:58.495Z,15.9
2019-05-14T18:04:59.278Z,15.7
2019-05-14T18:09:58.901Z,15.6
2019-05-14T18:14:58.912Z,15.5
2019-05-14T18:19:58.923Z,15.5
2019-05-14T18:24:59.275Z,15.5
2019-05-14T18:29:59.295Z,15.4
2019-05-14T18:34:58.588Z,15.3
2019-05-14T18:39:58.753Z,15.2
2019-05-14T18:44:59.091Z,14.9
2019-05-14T18:49:59.499Z,14.8
2019-05-14T18:54:59.203Z,14.9
2019-05-14T18:59:58.223Z,14.8
2019-05-14T19:04:58.541Z,14.5
2019-05-14T19:09:58.792Z,14.6
2019-05-14T19:14:59.167Z,14.4
2019-05-14T19:19:58.878Z,14.2
2019-05-14T19:24:58.808Z,14.1
2019-05-14T19:29:59.542Z,14.1
2019-05-14T19:34:58.304Z,14.1
2019-05-14T19:39:58.761Z,14.1
2019-05-14T19:44:59.779Z,14
2019-05-14T19:49:58.246Z,14
2019-05-14T19:54:58.413Z,13.8
2019-05-14T19:59:58.432Z,13.7
2019-05-14T20:04:58.935Z,13.6
2019-05-14T20:09:58.815Z,13.5
2019-05-14T20:14:58.556Z,13.4
2019-05-14T20:19:58.315Z,13.1
2019-05-14T20:24:58.940Z,13.1
2019-05-14T20:29:58.435Z,13.1
2019-05-14T20:34:58.322Z,12.9
2019-05-14T20:39:59.115Z,12.8
2019-05-14T20:44:58.389Z,12.6
2019-05-14T20:49:58.138Z,12.5
2019-05-14T20:54:58.428Z,12.3
2019-05-14T20:59:58.847Z,12.3
2019-05-14T21:05:04.246Z,12.2
2019-05-14T21:09:58.413Z,12.2
2019-05-14T21:14:59.114Z,12.1
2019-05-14T21:19:58.432Z,11.9
2019-05-14T21:24:58.126Z,11.8
2019-05-14T21:29:58.420Z,11.8
2019-05-14T21:34:58.569Z,11.7
2019-05-14T21:39:58.385Z,11.6
2019-05-14T21:44:58.549Z,11.4
2019-05-14T21:49:58.351Z,11.4
2019-05-14T21:54:58.686Z,11.5
2019-05-14T21:59:58.830Z,11.3
2019-05-14T22:05:01.296Z,11.3
2019-05-14T22:09:58.405Z,11.3
2019-05-14T22:14:58.949Z,11.2
2019-05-14T22:19:58.489Z,11.1
2019-05-14T22:24:58.506Z,10.9
2019-05-14T22:29:58.877Z,10.9
2019-05-14T22:34:58.634Z,10.6
2019-05-14T22:39:59.025Z,10.6
2019-05-14T22:44:58.489Z,10.5
2019-05-14T22:49:59.148Z,10.4
2019-05-14T22:54:58.685Z,10.5
2019-05-14T22:59:58.463Z,10.4
2019-05-14T23:04:58.603Z,10.3
2019-05-14T23:09:59.129Z,10.3
2019-05-14T23:14:58.220Z,10.3
2019-05-14T23:19:58.225Z,10.3
2019-05-14T23:24:59.190Z,10.1
2019-05-14T23:29:58.734Z,9.9
2019-05-14T23:34:58.551Z,10
2019-05-14T23:39:58.641Z,9.9
2019-05-14T23:44:58.610Z,9.8
2019-05-14T23:49:58.466Z,9.7
2019-05-14T23:54:57.901Z,9.5
2019-05-14T23:59:58.179Z,9.6
